createdAt,value
2018-04-01T00:00:50.523Z,10.10
2018-04-01T00:03:18.795Z,10.10
2018-04-01T00:05:48.324Z,10.10
2018-04-01T00:08:16.228Z,10.10
2018-04-01T00:10:43.724Z,10.10
2018-04-01T00:13:12.032Z,10.10
2018-04-01T00:15:40.297Z,10.20
2018-04-01T00:18:07.797Z,10.10
2018-04-01T00:20:35.992Z,10.10
2018-04-01T00:23:03.500Z,10.00
2018-04-01T00:25:32.145Z,10.00
2018-04-01T00:28:00.493Z,10.00
2018-04-01T00:30:27.988Z,9.90
2018-04-01T00:32:56.260Z,9.90
2018-04-01T00:35:25.201Z,9.90
2018-04-01T00:37:52.704Z,9.90
2018-04-01T00:40:21.350Z,9.90
2018-04-01T00:42:48.884Z,9.90
2018-04-01T00:45:16.786Z,9.90
2018-04-01T00:47:44.687Z,9.90
2018-04-01T00:50:13.019Z,9.80
2018-04-01T00:52:41.288Z,9.80
2018-04-01T00:55:09.184Z,9.80
2018-04-01T00:57:37.209Z,9.80
2018-04-01T01:00:05.481Z,9.80
2018-04-01T01:02:33.399Z,9.80
2018-04-01T01:05:01.691Z,9.80
2018-04-01T01:07:29.589Z,9.80
2018-04-01T01:09:57.864Z,9.90
2018-04-01T01:14:56.024Z,9.80
2018-04-01T01:17:23.924Z,9.90
2018-04-01T01:19:52.257Z,9.80
2018-04-01T01:22:20.151Z,9.70
2018-04-01T01:24:48.420Z,9.70
2018-04-01T01:27:16.729Z,9.70
2018-04-01T01:32:13.244Z,9.70
2018-04-01T01:34:41.240Z,9.70
2018-04-01T01:37:09.140Z,9.70
2018-04-01T01:39:37.784Z,9.70
2018-04-01T01:42:06.188Z,9.60
2018-04-01T01:44:33.683Z,9.60
2018-04-01T01:47:01.600Z,9.70
2018-04-01T01:49:30.273Z,9.60
2018-04-01T01:51:58.536Z,9.60
2018-04-01T01:54:26.431Z,9.50
2018-04-01T01:56:54.136Z,9.50
2018-04-01T01:59:22.036Z,9.40
2018-04-01T02:01:50.676Z,9.40
2018-04-01T02:04:22.232Z,9.40
2018-04-01T02:06:50.501Z,9.40
2018-04-01T02:09:18.397Z,9.40
2018-04-01T02:11:46.512Z,9.40
2018-04-01T02:14:15.525Z,9.40
2018-04-01T02:16:43.023Z,9.40
2018-04-01T02:19:10.994Z,9.40
2018-04-01T02:21:38.891Z,9.40
2018-04-01T02:24:07.160Z,9.40
2018-04-01T02:26:35.841Z,9.40
2018-04-01T02:29:03.740Z,9.40
2018-04-01T02:31:32.118Z,9.40
2018-04-01T02:33:59.575Z,9.40
2018-04-01T02:36:27.846Z,9.50
2018-04-01T02:38:55.747Z,9.50
2018-04-01T02:41:24.165Z,9.40
2018-04-01T02:43:52.809Z,9.50
2018-04-01T02:48:50.693Z,9.40
2018-04-01T02:51:18.197Z,9.40
2018-04-01T02:53:46.465Z,9.40
2018-04-01T02:56:14.397Z,9.40
2018-04-01T02:58:42.673Z,9.30
2018-04-01T03:01:10.571Z,9.40
2018-04-01T03:03:39.057Z,9.30
2018-04-01T03:08:35.586Z,9.30
2018-04-01T03:11:05.497Z,9.30
2018-04-01T03:13:34.107Z,9.30
2018-04-01T03:16:02.008Z,9.30
2018-04-01T03:18:29.961Z,9.40
2018-04-01T03:20:57.466Z,9.30
2018-04-01T03:23:25.738Z,9.30
2018-04-01T03:25:54.037Z,9.30
2018-04-01T03:28:21.936Z,9.30
2018-04-01T03:30:50.950Z,9.30
2018-04-01T03:33:18.747Z,9.30
2018-04-01T03:35:46.250Z,9.30
2018-04-01T03:38:14.516Z,9.30
2018-04-01T03:40:42.461Z,9.30
2018-04-01T03:43:10.724Z,9.30
2018-04-01T03:45:38.626Z,9.30
2018-04-01T03:48:08.047Z,9.30
2018-04-01T03:50:35.552Z,9.30
2018-04-01T03:55:33.399Z,9.20
2018-04-01T03:58:01.689Z,9.30
2018-04-01T04:00:29.646Z,9.30
2018-04-01T04:02:57.528Z,9.30
2018-04-01T04:05:25.809Z,9.20
2018-04-01T04:07:53.709Z,9.10
2018-04-01T04:10:22.333Z,9.10
2018-04-01T04:12:51.340Z,9.00
2018-04-01T04:15:18.840Z,9.00
2018-04-01T04:17:46.755Z,9.10
2018-04-01T04:20:14.260Z,9.10
2018-04-01T04:22:42.531Z,9.00
2018-04-01T04:25:10.469Z,9.00
2018-04-01T04:27:39.204Z,9.00
2018-04-01T04:30:06.708Z,8.90
2018-04-01T04:35:03.260Z,8.70
2018-04-01T04:37:31.160Z,8.60
2018-04-01T04:45:07.749Z,8.60
2018-04-01T04:47:35.648Z,8.70
2018-04-01T04:50:03.920Z,8.70
2018-04-01T04:52:31.848Z,8.80
2018-04-01T04:54:59.748Z,8.70
2018-04-01T04:57:28.007Z,8.70
2018-04-01T04:59:56.700Z,8.70
2018-04-01T05:02:24.605Z,8.70
2018-04-01T05:04:52.872Z,8.70
2018-04-01T05:07:22.452Z,8.70
2018-04-01T05:09:51.088Z,8.60
2018-04-01T05:12:19.347Z,8.70
2018-04-01T05:14:46.883Z,8.70
2018-04-01T05:17:15.149Z,8.80
2018-04-01T05:19:43.040Z,8.70
2018-04-01T05:22:11.212Z,8.70
2018-04-01T05:27:11.225Z,8.70
2018-04-01T05:29:40.233Z,8.80
2018-04-01T05:32:07.736Z,8.80
2018-04-01T05:34:35.674Z,8.80
2018-04-01T05:37:03.564Z,8.80
2018-04-01T05:39:31.838Z,8.80
2018-04-01T05:42:00.975Z,8.90
2018-04-01T05:44:28.480Z,8.80
2018-04-01T05:46:57.120Z,8.80
2018-04-01T05:49:25.024Z,8.90
2018-04-01T05:51:52.529Z,8.90
2018-04-01T05:54:20.423Z,8.90
2018-04-01T05:56:48.880Z,8.90
2018-04-01T05:59:16.779Z,8.90
2018-04-01T06:01:45.044Z,9.00
2018-04-01T06:04:14.084Z,8.90
2018-04-01T06:06:41.584Z,9.00
2018-04-01T06:09:09.085Z,8.90
2018-04-01T06:11:37.405Z,8.90
2018-04-01T06:14:05.304Z,8.90
2018-04-01T06:16:33.572Z,8.90
2018-04-01T06:19:01.876Z,8.90
2018-04-01T06:21:29.784Z,8.90
2018-04-01T06:23:58.052Z,8.90
2018-04-01T06:26:26.737Z,8.90
2018-04-01T06:28:55.008Z,8.90
2018-04-01T06:33:52.332Z,9.00
2018-04-01T06:36:20.970Z,9.00
2018-04-01T06:38:48.468Z,9.00
2018-04-01T06:41:17.424Z,9.00
2018-04-01T06:43:44.923Z,9.00
2018-04-01T06:46:13.187Z,9.10
2018-04-01T06:48:41.124Z,9.10
2018-04-01T06:51:09.020Z,9.20
2018-04-01T06:53:37.280Z,9.20
2018-04-01T06:56:05.803Z,9.30
2018-04-01T06:58:33.307Z,9.30
2018-04-01T07:01:01.572Z,9.30
2018-04-01T07:03:33.193Z,9.30
2018-04-01T07:06:00.696Z,9.30
2018-04-01T07:08:28.596Z,9.30
2018-04-01T07:10:56.840Z,9.30
2018-04-01T07:13:24.344Z,9.30
2018-04-01T07:15:52.240Z,9.20
2018-04-01T07:18:20.548Z,9.20
2018-04-01T07:20:48.444Z,9.20
2018-04-01T07:23:16.353Z,9.20
2018-04-01T07:25:44.708Z,9.20
2018-04-01T07:28:13.176Z,9.20
2018-04-01T07:30:40.679Z,9.20
2018-04-01T07:35:37.629Z,9.10
2018-04-01T07:38:06.268Z,9.00
2018-04-01T07:40:33.908Z,9.00
2018-04-01T07:43:01.413Z,9.10
2018-04-01T07:45:29.304Z,9.10
2018-04-01T07:47:57.776Z,9.10
2018-04-01T07:50:25.678Z,9.10
2018-04-01T07:52:54.693Z,9.20
2018-04-01T07:55:22.631Z,9.20
2018-04-01T07:57:50.892Z,9.30
2018-04-01T08:00:18.409Z,9.40
2018-04-01T08:02:46.680Z,9.40
2018-04-01T08:07:43.208Z,9.50
2018-04-01T08:10:11.541Z,9.50
2018-04-01T08:12:39.436Z,9.50
2018-04-01T08:15:06.944Z,9.50
2018-04-01T08:17:35.221Z,9.50
2018-04-01T08:20:03.119Z,9.60
2018-04-01T08:22:31.763Z,9.60
2018-04-01T08:24:59.406Z,9.60
2018-04-01T08:27:27.299Z,9.60
2018-04-01T08:29:55.571Z,9.60
2018-04-01T08:32:23.676Z,9.60
2018-04-01T08:34:51.572Z,9.60
2018-04-01T08:37:19.836Z,9.60
2018-04-01T08:39:48.887Z,9.60
2018-04-01T08:44:46.172Z,9.60
2018-04-01T08:47:14.156Z,9.50
2018-04-01T08:49:42.427Z,9.50
2018-04-01T08:52:10.332Z,9.50
2018-04-01T08:54:38.808Z,9.50
2018-04-01T08:59:35.344Z,9.50
2018-04-01T09:02:03.584Z,9.60
2018-04-01T09:04:31.088Z,9.60
2018-04-01T09:06:59.360Z,9.60
2018-04-01T09:09:27.336Z,9.70
2018-04-01T09:11:55.231Z,9.80
2018-04-01T09:14:23.509Z,9.80
2018-04-01T09:16:53.092Z,9.80
2018-04-01T09:19:20.593Z,9.90
2018-04-01T09:21:48.488Z,9.80
2018-04-01T09:26:45.056Z,9.80
2018-04-01T09:29:12.565Z,9.80
2018-04-01T09:31:40.281Z,9.80
2018-04-01T09:34:08.553Z,9.80
2018-04-01T09:36:36.457Z,9.70
2018-04-01T09:39:04.774Z,9.80
2018-04-01T09:41:33.047Z,9.80
2018-04-01T09:44:00.984Z,9.90
2018-04-01T09:46:28.917Z,9.90
2018-04-01T09:48:57.923Z,10.00
2018-04-01T09:51:27.005Z,10.10
2018-04-01T09:53:55.312Z,10.00
2018-04-01T09:56:23.216Z,10.00
2018-04-01T09:58:51.488Z,10.00
2018-04-01T10:01:20.696Z,9.90
2018-04-01T10:03:48.688Z,9.90
2018-04-01T10:06:16.685Z,9.90
2018-04-01T10:08:45.041Z,9.90
2018-04-01T10:11:13.241Z,9.80
2018-04-01T10:13:41.480Z,9.80
2018-04-01T10:16:09.752Z,9.90
2018-04-01T10:18:37.991Z,9.90
2018-04-01T10:21:06.993Z,10.00
2018-04-01T10:23:36.046Z,10.10
2018-04-01T10:26:04.284Z,10.10
2018-04-01T10:28:33.664Z,10.20
2018-04-01T10:31:01.936Z,10.30
2018-04-01T10:33:30.582Z,10.40
2018-04-01T10:35:59.572Z,10.40
2018-04-01T10:38:29.284Z,10.50
2018-04-01T10:40:57.911Z,10.50
2018-04-01T10:45:56.058Z,10.30
2018-04-01T10:48:25.063Z,10.30
2018-04-01T10:50:54.442Z,10.30
2018-04-01T10:53:22.880Z,10.30
2018-04-01T10:55:50.620Z,10.40
2018-04-01T10:58:18.137Z,10.50
2018-04-01T11:00:46.709Z,10.50
2018-04-01T11:03:14.220Z,10.50
2018-04-01T11:05:42.492Z,10.40
2018-04-01T11:08:11.550Z,10.40
2018-04-01T11:13:08.841Z,10.40
2018-04-01T11:15:37.686Z,10.30
2018-04-01T11:18:05.957Z,10.30
2018-04-01T11:20:33.463Z,10.30
2018-04-01T11:23:01.773Z,10.30
2018-04-01T11:25:29.280Z,10.30
2018-04-01T11:27:57.552Z,10.30
2018-04-01T11:30:25.741Z,10.30
2018-04-01T11:32:54.020Z,10.30
2018-04-01T11:35:21.928Z,10.30
2018-04-01T11:37:50.168Z,10.50
2018-04-01T11:40:18.068Z,10.90
2018-04-01T11:42:46.336Z,11.40
2018-04-01T11:45:14.743Z,12.00
2018-04-01T11:47:43.014Z,12.60
2018-04-01T11:50:10.512Z,13.00
2018-04-01T11:52:38.440Z,13.10
2018-04-01T11:55:06.708Z,12.90
2018-04-01T11:57:35.349Z,12.60
2018-04-01T12:00:06.176Z,12.30
2018-04-01T12:02:33.671Z,12.20
2018-04-01T12:05:01.950Z,12.00
2018-04-01T12:07:29.880Z,11.90
2018-04-01T12:09:57.392Z,11.80
2018-04-01T12:12:25.656Z,11.70
2018-04-01T12:14:53.581Z,11.60
2018-04-01T12:17:21.847Z,11.50
2018-04-01T12:19:49.749Z,11.40
2018-04-01T12:22:18.219Z,11.40
2018-04-01T12:24:46.124Z,11.30
2018-04-01T12:27:14.770Z,11.40
2018-04-01T12:29:42.421Z,11.50
2018-04-01T12:32:10.341Z,11.70
2018-04-01T12:34:38.584Z,12.00
2018-04-01T12:37:06.521Z,12.20
2018-04-01T12:39:34.789Z,12.40
2018-04-01T12:42:02.752Z,12.50
2018-04-01T12:44:31.437Z,12.40
2018-04-01T12:46:59.703Z,12.30
2018-04-01T12:49:27.338Z,12.20
2018-04-01T12:51:55.440Z,12.10
2018-04-01T12:54:23.360Z,11.90
2018-04-01T12:56:52.023Z,11.80
2018-04-01T12:59:20.323Z,11.80
2018-04-01T13:01:48.606Z,11.70
2018-04-01T13:04:16.103Z,11.70
2018-04-01T13:06:44.296Z,11.70
2018-04-01T13:09:12.970Z,11.60
2018-04-01T13:14:09.520Z,11.70
2018-04-01T13:16:38.604Z,11.70
2018-04-01T13:19:06.500Z,11.80
2018-04-01T13:21:38.393Z,11.90
2018-04-01T13:24:05.950Z,11.90
2018-04-01T13:26:34.912Z,11.90
2018-04-01T13:29:03.769Z,11.90
2018-04-01T13:31:31.265Z,12.00
2018-04-01T13:36:27.885Z,12.00
2018-04-01T13:38:55.384Z,11.90
2018-04-01T13:41:24.393Z,11.80
2018-04-01T13:43:51.980Z,11.80
2018-04-01T13:46:19.481Z,11.70
2018-04-01T13:48:48.603Z,11.60
2018-04-01T13:51:19.092Z,11.50
2018-04-01T13:53:46.597Z,11.40
2018-04-01T13:56:14.192Z,11.40
2018-04-01T13:58:42.668Z,11.40
2018-04-01T14:01:10.572Z,11.30
2018-04-01T14:03:38.846Z,11.20
2018-04-01T14:06:06.796Z,11.20
2018-04-01T14:08:34.700Z,11.10
2018-04-01T14:11:03.716Z,11.10
2018-04-01T14:13:31.454Z,11.00
2018-04-01T14:15:59.352Z,11.00
2018-04-01T14:18:28.004Z,11.00
2018-04-01T14:20:55.571Z,10.90
2018-04-01T14:23:23.472Z,10.90
2018-04-01T14:25:52.488Z,10.90
2018-04-01T14:28:20.431Z,10.90
2018-04-01T14:30:48.701Z,10.90
2018-04-01T14:33:16.235Z,10.80
2018-04-01T14:35:44.693Z,10.80
2018-04-01T14:38:12.601Z,10.70
2018-04-01T14:40:40.500Z,10.30
2018-04-01T14:43:08.448Z,10.70
2018-04-01T14:45:36.347Z,10.60
2018-04-01T14:48:04.628Z,10.60
2018-04-01T14:50:33.892Z,10.50
2018-04-01T14:53:01.407Z,10.50
2018-04-01T14:55:29.768Z,10.40
2018-04-01T14:57:57.320Z,10.40
2018-04-01T15:00:25.973Z,10.30
2018-04-01T15:02:53.892Z,10.30
2018-04-01T15:07:51.665Z,10.20
2018-04-01T15:10:20.309Z,10.20
2018-04-01T15:12:47.884Z,10.20
2018-04-01T15:15:15.780Z,10.10
2018-04-01T15:17:43.688Z,10.20
2018-04-01T15:20:11.415Z,10.20
2018-04-01T15:22:38.925Z,10.20
2018-04-01T15:25:06.432Z,10.20
2018-04-01T15:27:34.535Z,10.20
2018-04-01T15:30:02.400Z,10.10
2018-04-01T15:32:30.676Z,10.10
2018-04-01T15:34:59.362Z,10.10
2018-04-01T15:37:27.628Z,10.10
2018-04-01T15:39:55.140Z,10.10
2018-04-01T15:42:23.424Z,10.10
2018-04-01T15:44:50.936Z,10.10
2018-04-01T15:47:19.216Z,10.10
2018-04-01T15:49:48.536Z,10.10
2018-04-01T15:52:16.065Z,10.00
2018-04-01T15:54:44.318Z,10.00
2018-04-01T15:57:11.855Z,10.00
2018-04-01T15:59:40.505Z,10.00
2018-04-01T16:02:08.400Z,9.90
2018-04-01T16:04:36.132Z,9.90
2018-04-01T16:07:04.022Z,9.90
2018-04-01T16:09:32.296Z,9.90
2018-04-01T16:14:28.891Z,9.80
2018-04-01T16:16:56.388Z,9.80
2018-04-01T16:19:24.804Z,9.70
2018-04-01T16:21:52.708Z,9.70
2018-04-01T16:24:20.980Z,9.70
2018-04-01T16:26:48.929Z,9.70
2018-04-01T16:29:17.197Z,9.70
2018-04-01T16:31:45.473Z,9.70
2018-04-01T16:34:13.652Z,9.70
2018-04-01T16:36:41.156Z,9.60
2018-04-01T16:39:10.168Z,9.60
2018-04-01T16:41:37.727Z,9.60
2018-04-01T16:44:06.370Z,9.50
2018-04-01T16:46:33.872Z,9.50
2018-04-01T16:49:01.810Z,9.50
2018-04-01T16:51:30.113Z,9.50
2018-04-01T16:53:57.972Z,9.50
2018-04-01T16:56:26.736Z,9.50
2018-04-01T16:58:54.236Z,9.40
2018-04-01T17:01:22.504Z,9.40
2018-04-01T17:03:50.809Z,9.30
2018-04-01T17:06:19.449Z,9.30
2018-04-01T17:08:47.348Z,9.30
2018-04-01T17:11:15.552Z,9.30
2018-04-01T17:13:43.067Z,9.30
2018-04-01T17:16:10.956Z,9.30
2018-04-01T17:18:39.278Z,9.30
2018-04-01T17:21:07.169Z,9.30
2018-04-01T17:23:35.444Z,9.30
2018-04-01T17:26:03.751Z,9.40
2018-04-01T17:28:32.020Z,9.40
2018-04-01T17:33:29.142Z,9.40
2018-04-01T17:38:26.212Z,9.40
2018-04-01T17:40:54.901Z,9.40
2018-04-01T17:43:23.180Z,9.40
2018-04-01T17:45:51.073Z,9.40
2018-04-01T17:48:19.908Z,9.30
2018-04-01T17:50:47.813Z,9.30
2018-04-01T17:53:15.316Z,9.30
2018-04-01T17:55:42.872Z,9.30
2018-04-01T17:58:11.187Z,9.30
2018-04-01T18:00:39.051Z,9.30
2018-04-01T18:03:10.312Z,9.30
2018-04-01T18:05:37.821Z,9.30
2018-04-01T18:08:06.088Z,9.30
2018-04-01T18:10:34.201Z,9.30
2018-04-01T18:13:01.700Z,9.30
2018-04-01T18:15:30.336Z,9.20
2018-04-01T18:17:58.067Z,9.30
2018-04-01T18:20:25.995Z,9.30
2018-04-01T18:22:54.261Z,9.20
2018-04-01T18:25:22.197Z,9.20
2018-04-01T18:27:50.472Z,9.20
2018-04-01T18:30:18.367Z,9.20
2018-04-01T18:32:47.426Z,9.20
2018-04-01T18:35:15.325Z,9.20
2018-04-01T18:37:43.608Z,9.20
2018-04-01T18:40:11.913Z,9.20
2018-04-01T18:42:39.411Z,9.20
2018-04-01T18:45:07.680Z,9.20
2018-04-01T18:47:36.168Z,9.20
2018-04-01T18:50:03.673Z,9.20
2018-04-01T18:52:31.572Z,9.20
2018-04-01T18:55:03.220Z,9.20
2018-04-01T18:57:30.732Z,9.10
2018-04-01T18:59:59.009Z,9.10
2018-04-01T19:02:26.901Z,9.10
2018-04-01T19:04:54.404Z,9.10
2018-04-01T19:07:22.309Z,9.10
2018-04-01T19:09:50.421Z,9.20
2018-04-01T19:12:18.696Z,9.10
2018-04-01T19:14:46.592Z,9.10
2018-04-01T19:17:15.012Z,9.10
2018-04-01T19:19:43.252Z,9.10
2018-04-01T19:22:11.884Z,9.10
2018-04-01T19:24:40.153Z,9.10
2018-04-01T19:27:08.388Z,9.10
2018-04-01T19:29:37.764Z,9.10
2018-04-01T19:32:06.156Z,9.10
2018-04-01T19:34:34.384Z,9.10
2018-04-01T19:37:02.622Z,9.10
2018-04-01T19:42:00.358Z,9.10
2018-04-01T19:44:28.592Z,9.00
2018-04-01T19:46:56.864Z,9.00
2018-04-01T19:49:25.092Z,9.00
2018-04-01T19:54:23.385Z,9.10
2018-04-01T19:56:52.985Z,9.10
2018-04-01T19:59:21.220Z,9.10
2018-04-01T20:01:50.464Z,9.10
2018-04-01T20:04:19.091Z,9.10
2018-04-01T20:06:47.382Z,9.10
2018-04-01T20:09:16.181Z,9.10
2018-04-01T20:16:43.962Z,9.00
2018-04-01T20:19:12.193Z,9.00
2018-04-01T20:21:40.429Z,9.10
2018-04-01T20:24:08.696Z,9.00
2018-04-01T20:26:36.936Z,9.00
2018-04-01T20:29:05.168Z,9.00
2018-04-01T20:31:33.437Z,9.00
2018-04-01T20:34:01.697Z,9.00
2018-04-01T20:36:31.064Z,9.00
2018-04-01T20:38:59.448Z,9.00
2018-04-01T20:41:31.118Z,9.00
2018-04-01T20:43:59.788Z,9.00
2018-04-01T20:46:28.025Z,9.00
2018-04-01T20:48:56.264Z,9.00
2018-04-01T20:51:24.532Z,9.00
2018-04-01T20:53:53.533Z,8.90
2018-04-01T20:56:21.825Z,9.00
2018-04-01T20:58:50.153Z,8.90
2018-04-01T21:01:18.388Z,8.90
2018-04-01T21:03:46.619Z,8.90
2018-04-01T21:08:44.656Z,8.90
2018-04-01T21:11:14.019Z,8.90
2018-04-01T21:13:42.284Z,8.90
2018-04-01T21:16:11.279Z,8.90
2018-04-01T21:18:39.516Z,8.90
2018-04-01T21:21:08.014Z,8.90
2018-04-01T21:23:36.645Z,8.90
2018-04-01T21:26:04.882Z,8.90
2018-04-01T21:28:33.184Z,8.90
2018-04-01T21:31:01.447Z,8.90
2018-04-01T21:33:29.672Z,8.90
2018-04-01T21:35:58.364Z,8.90
2018-04-01T21:38:26.596Z,8.90
2018-04-01T21:40:55.596Z,8.90
2018-04-01T21:43:24.264Z,8.90
2018-04-01T21:48:21.973Z,8.80
2018-04-01T21:50:50.676Z,8.80
2018-04-01T21:53:18.916Z,8.80
2018-04-01T21:55:47.144Z,8.70
2018-04-01T21:58:15.520Z,8.80
2018-04-01T22:00:44.516Z,8.80
2018-04-01T22:05:42.632Z,8.70
2018-04-01T22:08:10.864Z,8.60
2018-04-01T22:10:39.868Z,8.70
2018-04-01T22:13:08.401Z,8.60
2018-04-01T22:15:37.028Z,8.60
2018-04-01T22:18:06.028Z,8.60
2018-04-01T22:20:35.566Z,8.50
2018-04-01T22:23:13.380Z,8.50
2018-04-01T22:25:42.720Z,8.50
2018-04-01T22:28:11.712Z,8.50
2018-04-01T22:30:39.941Z,8.40
2018-04-01T22:33:08.204Z,8.40
2018-04-01T22:35:36.427Z,8.30
2018-04-01T22:38:06.173Z,8.30
2018-04-01T22:40:35.464Z,8.20
2018-04-01T22:43:04.084Z,8.20
2018-04-01T22:45:32.320Z,8.10
2018-04-01T22:50:30.627Z,8.00
2018-04-01T22:52:58.861Z,8.00
2018-04-01T22:55:27.373Z,7.90
2018-04-01T22:57:55.604Z,7.90
2018-04-01T23:00:23.838Z,7.90
2018-04-01T23:02:52.101Z,7.90
2018-04-01T23:05:20.332Z,7.80
2018-04-01T23:07:48.559Z,7.80
2018-04-01T23:10:17.533Z,7.80
2018-04-01T23:12:45.765Z,7.80
2018-04-01T23:15:13.998Z,7.70
2018-04-01T23:17:43.249Z,7.70
2018-04-01T23:22:40.945Z,7.60
2018-04-01T23:25:09.711Z,7.60
2018-04-01T23:27:39.453Z,7.50
2018-04-01T23:30:08.857Z,7.50
2018-04-01T23:32:37.091Z,7.50
2018-04-01T23:35:05.320Z,7.40
2018-04-01T23:37:34.731Z,7.30
2018-04-01T23:40:02.957Z,7.30
2018-04-01T23:42:31.183Z,7.30
2018-04-01T23:45:02.784Z,7.20
2018-04-01T23:47:31.014Z,7.20
2018-04-01T23:50:00.008Z,7.10
2018-04-01T23:52:28.397Z,7.20
2018-04-01T23:54:56.628Z,7.10
2018-04-01T23:57:25.998Z,7.10
2018-04-01T23:59:54.396Z,7.10
